Time;durP1;ratioP1;P1;durP2;ratioP2;P2;SDS_P1;SDS_P2;PMS_P1;PMS_P2;Temp;Humidity;BMP_temperature;BMP_pressure;BME280_temperature;BME280_humidity;BME280_pressure;Samples;Min_cycle;Max_cycle;Signal;HPM_P1;HPM_P2
2022/11/04 00:01:15;;;;;;;;;;;8.60;99.90;;;;;;5105139;28;20314;-87
2022/11/04 00:03:41;;;;;;;;;;;8.50;99.90;;;;;;5082028;28;19920;-87
2022/11/04 00:06:07;;;;;;;;;;;8.50;99.90;;;;;;5100026;28;19919;-85
2022/11/04 00:08:33;;;;;;;;;;;8.50;99.90;;;;;;5099286;28;19922;-86
2022/11/04 00:13:43;;;;;;;;;;;8.40;99.90;;;;;;5095502;28;19969;-86
2022/11/04 00:18:53;;;;;;;;;;;8.30;99.90;;;;;;5100408;28;19919;-88
2022/11/04 00:29:31;;;;;;;;;;;8.30;99.90;;;;;;5087153;28;19927;-86
2022/11/04 00:34:41;;;;;;;;;;;8.20;99.90;;;;;;5100534;28;19974;-86
2022/11/04 00:37:06;;;;;;;;;;;8.20;99.90;;;;;;5097849;28;19948;-87
2022/11/04 00:39:32;;;;;;;;;;;8.20;99.90;;;;;;5115349;27;20045;-87
2022/11/04 00:41:57;;;;;;;;;;;8.10;99.90;;;;;;5103484;28;19917;-86
2022/11/04 00:44:23;;;;;;;;;;;8.10;99.90;;;;;;5092448;28;19928;-86
2022/11/04 00:46:48;;;;;;;;;;;8.00;99.90;;;;;;5105124;28;20333;-86
2022/11/04 00:49:14;;;;;;;;;;;8.10;99.90;;;;;;5095988;28;20656;-85
2022/11/04 00:51:40;;;;;;;;;;;8.10;99.90;;;;;;5095633;28;19965;-85
2022/11/04 00:54:05;;;;;;;;;;;8.10;99.90;;;;;;5108002;28;19946;-86
2022/11/04 00:56:31;;;;;;;;;;;8.20;99.90;;;;;;5091632;28;19927;-86
2022/11/04 00:59:00;;;;;;;;;;;8.10;99.90;;;;;;5098817;28;19916;-86
2022/11/04 01:01:26;;;;;;;;;;;8.10;99.90;;;;;;5090317;28;19927;-87
2022/11/04 01:03:52;;;;;;;;;;;8.10;99.90;;;;;;5093712;28;19920;-86
2022/11/04 01:06:18;;;;;;;;;;;8.20;99.90;;;;;;5093785;28;19916;-87
2022/11/04 01:08:44;;;;;;;;;;;8.10;99.90;;;;;;5102750;28;19942;-86
2022/11/04 01:11:10;;;;;;;;;;;8.20;99.90;;;;;;5101601;28;19923;-86
2022/11/04 01:13:36;;;;;;;;;;;8.20;99.90;;;;;;5093398;28;19938;-86
2022/11/04 01:16:03;;;;;;;;;;;8.30;99.90;;;;;;5097250;28;19915;-86
2022/11/04 01:18:28;;;;;;;;;;;8.20;99.90;;;;;;5100102;28;19961;-86
2022/11/04 01:20:54;;;;;;;;;;;8.20;99.90;;;;;;5096744;28;19916;-85
2022/11/04 01:23:20;;;;;;;;;;;8.20;99.90;;;;;;5095600;28;19916;-85
2022/11/04 01:25:45;;;;;;;;;;;8.20;99.90;;;;;;5102836;28;19920;-86
2022/11/04 01:28:11;;;;;;;;;;;8.20;99.90;;;;;;5074881;28;19923;-86
2022/11/04 01:30:37;;;;;;;;;;;8.30;99.90;;;;;;5094525;28;20290;-85
2022/11/04 01:33:02;;;;;;;;;;;8.30;99.90;;;;;;5098423;28;19943;-86
2022/11/04 01:35:28;;;;;;;;;;;8.30;99.90;;;;;;5095127;28;20371;-86
2022/11/04 01:37:53;;;;;;;;;;;8.30;99.90;;;;;;5089417;28;19920;-85
2022/11/04 01:40:19;;;;;;;;;;;8.30;99.90;;;;;;5103955;28;19926;-85
2022/11/04 01:42:44;;;;;;;;;;;8.30;99.90;;;;;;5097735;28;20060;-86
2022/11/04 01:45:13;;;;;;;;;;;8.30;99.90;;;;;;5092869;28;19924;-85
2022/11/04 01:47:43;;;;;;;;;;;8.40;99.90;;;;;;5102788;28;20570;-86
2022/11/04 01:50:29;;;;;;;;;;;8.40;99.90;;;;;;5093293;28;19928;-86
2022/11/04 01:53:02;;;;;;;;;;;8.40;99.90;;;;;;5090205;28;19924;-86
2022/11/04 01:55:30;;;;;;;;;;;8.30;99.90;;;;;;5098726;28;19934;-86
2022/11/04 01:58:00;;;;;;;;;;;8.20;99.90;;;;;;5094791;28;19912;-86
2022/11/04 02:00:25;;;;;;;;;;;8.20;99.90;;;;;;5093750;28;19938;-86
2022/11/04 02:02:51;;;;;;;;;;;8.10;99.90;;;;;;5104676;28;20574;-85
2022/11/04 02:05:16;;;;;;;;;;;8.10;99.90;;;;;;5095820;28;19915;-86
2022/11/04 02:07:42;;;;;;;;;;;8.10;99.90;;;;;;5108076;28;20310;-86
2022/11/04 02:10:07;;;;;;;;;;;8.10;99.90;;;;;;5119564;28;19916;-86
2022/11/04 02:12:48;;;;;;;;;;;8.10;99.90;;;;;;5107724;28;19912;-86
2022/11/04 02:15:15;;;;;;;;;;;8.10;99.90;;;;;;5098162;28;20059;-86
2022/11/04 02:18:16;;;;;;;;;;;8.00;99.90;;;;;;5123481;27;20046;-86
2022/11/04 02:20:55;;;;;;;;;;;8.00;99.90;;;;;;5025213;28;20509;-86
2022/11/04 02:23:40;;;;;;;;;;;8.00;99.90;;;;;;5093164;28;19963;-86
2022/11/04 02:26:05;;;;;;;;;;;8.00;99.90;;;;;;5104254;28;19915;-86
2022/11/04 02:28:49;;;;;;;;;;;8.00;99.90;;;;;;5100087;28;20459;-87
2022/11/04 02:31:30;;;;;;;;;;;7.90;99.90;;;;;;5104512;28;20417;-86
2022/11/04 02:34:03;;;;;;;;;;;7.90;99.90;;;;;;5100977;28;19920;-86
2022/11/04 02:36:37;;;;;;;;;;;7.90;99.90;;;;;;5095246;28;19935;-86
2022/11/04 02:39:17;;;;;;;;;;;7.90;99.90;;;;;;5102859;28;19915;-86
2022/11/04 02:41:55;;;;;;;;;;;7.90;99.90;;;;;;5101733;28;19912;-87
2022/11/04 02:44:24;;;;;;;;;;;7.80;99.90;;;;;;5097310;28;19916;-86
2022/11/04 02:46:52;;;;;;;;;;;7.80;99.90;;;;;;5105676;28;19927;-86
2022/11/04 02:49:17;;;;;;;;;;;7.80;99.90;;;;;;5099437;28;19958;-86
2022/11/04 02:52:03;;;;;;;;;;;7.80;99.90;;;;;;5094246;28;19951;-87
2022/11/04 02:54:31;;;;;;;;;;;7.70;99.90;;;;;;5100163;28;19919;-87
2022/11/04 02:56:59;;;;;;;;;;;7.80;99.90;;;;;;5103371;27;19916;-86
2022/11/04 02:59:28;;;;;;;;;;;7.70;99.90;;;;;;5098119;28;19912;-86
2022/11/04 03:01:55;;;;;;;;;;;7.70;99.90;;;;;;5094809;28;19953;-86
2022/11/04 03:04:27;;;;;;;;;;;7.70;99.90;;;;;;5098374;28;19916;-87
2022/11/04 03:06:53;;;;;;;;;;;7.70;99.90;;;;;;5092213;28;19916;-86
2022/11/04 03:09:21;;;;;;;;;;;7.70;99.90;;;;;;5104612;28;19939;-87
2022/11/04 03:11:48;;;;;;;;;;;7.70;99.90;;;;;;5111404;27;19919;-86
2022/11/04 03:14:14;;;;;;;;;;;7.70;99.90;;;;;;5079683;28;19924;-87
2022/11/04 03:16:43;;;;;;;;;;;7.70;99.90;;;;;;5101600;28;19923;-86
2022/11/04 03:19:11;;;;;;;;;;;7.70;99.90;;;;;;5097365;28;19939;-86
2022/11/04 03:21:39;;;;;;;;;;;7.70;99.90;;;;;;5093840;28;19916;-86
2022/11/04 03:24:05;;;;;;;;;;;7.70;99.90;;;;;;5104114;28;19955;-86
2022/11/04 03:26:33;;;;;;;;;;;7.80;99.90;;;;;;5082360;28;20351;-87
2022/11/04 03:28:59;;;;;;;;;;;7.70;99.90;;;;;;5096596;28;19937;-86
2022/11/04 03:31:28;;;;;;;;;;;7.60;99.90;;;;;;5099667;28;19916;-86
2022/11/04 03:33:54;;;;;;;;;;;7.60;99.90;;;;;;5094395;28;19965;-86
2022/11/04 03:36:20;;;;;;;;;;;7.60;99.90;;;;;;5098014;28;19916;-86
2022/11/04 03:38:46;;;;;;;;;;;7.60;99.90;;;;;;5083109;28;19920;-85
2022/11/04 03:41:44;;;;;;;;;;;7.60;99.90;;;;;;5105562;28;20712;-87
2022/11/04 03:44:10;;;;;;;;;;;7.60;99.90;;;;;;5057822;28;20589;-86
2022/11/04 03:46:35;;;;;;;;;;;7.50;99.90;;;;;;5101421;28;19959;-86
2022/11/04 03:49:01;;;;;;;;;;;7.50;99.90;;;;;;5104835;28;20015;-86
2022/11/04 03:51:27;;;;;;;;;;;7.50;99.90;;;;;;5092786;28;19916;-85
2022/11/04 03:53:53;;;;;;;;;;;7.50;99.90;;;;;;5101614;28;19980;-86
2022/11/04 03:56:21;;;;;;;;;;;7.50;99.90;;;;;;5100606;28;19916;-85
2022/11/04 03:58:54;;;;;;;;;;;7.50;99.90;;;;;;5097580;28;19916;-86
2022/11/04 04:01:37;;;;;;;;;;;7.50;99.90;;;;;;5101765;28;19992;-86
2022/11/04 04:04:21;;;;;;;;;;;7.50;99.90;;;;;;5100775;28;20379;-86
2022/11/04 04:06:47;;;;;;;;;;;7.50;99.90;;;;;;5092465;28;20314;-86
2022/11/04 04:09:21;;;;;;;;;;;7.50;99.90;;;;;;5106303;28;19928;-86
2022/11/04 04:11:50;;;;;;;;;;;7.40;99.90;;;;;;5095836;28;20415;-86
2022/11/04 04:14:40;;;;;;;;;;;7.40;99.90;;;;;;5092859;28;19942;-86
2022/11/04 04:17:05;;;;;;;;;;;7.40;99.90;;;;;;5093550;28;20562;-86
2022/11/04 04:19:32;;;;;;;;;;;7.30;99.90;;;;;;5101267;28;19986;-85
2022/11/04 04:21:59;;;;;;;;;;;7.40;99.90;;;;;;5076056;28;19920;-86
2022/11/04 04:27:30;;;;;;;;;;;7.30;99.90;;;;;;5099460;28;20465;-86
2022/11/04 04:29:56;;;;;;;;;;;7.30;99.90;;;;;;5093501;28;19927;-85
2022/11/04 04:32:23;;;;;;;;;;;7.30;99.90;;;;;;5100762;28;19916;-85
2022/11/04 04:34:48;;;;;;;;;;;7.30;99.90;;;;;;5094222;28;19963;-86
2022/11/04 04:37:19;;;;;;;;;;;7.30;99.90;;;;;;5106586;27;19960;-85
2022/11/04 04:45:21;;;;;;;;;;;7.30;99.90;;;;;;5097228;28;20357;-85
2022/11/04 04:47:46;;;;;;;;;;;7.30;99.90;;;;;;5103457;28;19939;-86
2022/11/04 04:50:13;;;;;;;;;;;7.20;99.90;;;;;;5073671;28;20407;-86
2022/11/04 04:52:40;;;;;;;;;;;7.20;99.90;;;;;;5097055;28;19916;-86
2022/11/04 04:55:06;;;;;;;;;;;7.20;99.90;;;;;;5093972;28;19916;-86
2022/11/04 04:57:31;;;;;;;;;;;7.20;99.90;;;;;;5082080;28;19966;-86
2022/11/04 04:59:57;;;;;;;;;;;7.20;99.90;;;;;;5078985;28;19919;-86
2022/11/04 05:02:22;;;;;;;;;;;7.20;99.90;;;;;;5103835;28;19997;-86
2022/11/04 05:04:48;;;;;;;;;;;7.10;99.90;;;;;;5077017;28;19920;-86
2022/11/04 05:07:13;;;;;;;;;;;7.10;99.90;;;;;;5092267;28;19920;-85
2022/11/04 05:09:39;;;;;;;;;;;7.10;99.90;;;;;;5088804;28;19931;-85
2022/11/04 05:12:04;;;;;;;;;;;7.10;99.90;;;;;;5095364;28;20544;-86
2022/11/04 05:14:30;;;;;;;;;;;7.10;99.90;;;;;;5075811;28;19924;-86
2022/11/04 05:16:55;;;;;;;;;;;7.10;99.90;;;;;;5102998;28;19920;-86
2022/11/04 05:19:21;;;;;;;;;;;7.10;99.90;;;;;;5098187;28;19965;-86
2022/11/04 05:21:46;;;;;;;;;;;7.20;99.90;;;;;;5079169;28;20675;-86
2022/11/04 05:24:12;;;;;;;;;;;7.20;99.90;;;;;;5104791;28;19950;-85
2022/11/04 05:26:37;;;;;;;;;;;7.20;99.90;;;;;;5095026;28;19946;-86
2022/11/04 05:29:03;;;;;;;;;;;7.20;99.90;;;;;;5097369;28;20287;-86
2022/11/04 05:31:29;;;;;;;;;;;7.20;99.90;;;;;;5106058;28;20185;-86
2022/11/04 05:33:55;;;;;;;;;;;7.20;99.90;;;;;;5101360;28;19931;-86
2022/11/04 05:36:21;;;;;;;;;;;7.20;99.90;;;;;;5112583;28;19916;-85
2022/11/04 05:38:50;;;;;;;;;;;7.20;99.90;;;;;;5110652;28;19923;-85
2022/11/04 05:41:24;;;;;;;;;;;7.20;99.90;;;;;;5112872;28;19913;-85
2022/11/04 05:43:57;;;;;;;;;;;7.20;99.90;;;;;;5121390;28;19911;-86
2022/11/04 05:46:23;;;;;;;;;;;7.10;99.90;;;;;;5129311;28;19979;-85
2022/11/04 05:48:49;;;;;;;;;;;7.20;99.90;;;;;;5120563;28;20434;-86
2022/11/04 05:51:15;;;;;;;;;;;7.10;99.90;;;;;;5120751;28;19924;-85
2022/11/04 05:53:41;;;;;;;;;;;7.10;99.90;;;;;;5130187;28;19920;-86
2022/11/04 05:56:07;;;;;;;;;;;7.10;99.90;;;;;;5110005;28;19922;-85
2022/11/04 05:58:32;;;;;;;;;;;7.10;99.90;;;;;;5077698;28;19916;-86
2022/11/04 06:01:16;;;;;;;;;;;7.10;99.90;;;;;;5081948;28;20310;-85
2022/11/04 06:03:42;;;;;;;;;;;7.10;99.90;;;;;;5121103;27;20454;-85
2022/11/04 06:06:07;;;;;;;;;;;7.10;99.90;;;;;;5081850;28;20002;-86
2022/11/04 06:08:33;;;;;;;;;;;7.10;99.90;;;;;;5106340;28;19962;-85
2022/11/04 06:10:58;;;;;;;;;;;7.10;99.90;;;;;;5102048;28;19999;-85
2022/11/04 06:13:24;;;;;;;;;;;7.00;99.90;;;;;;5092726;28;19970;-85
2022/11/04 06:15:49;;;;;;;;;;;7.00;99.90;;;;;;5101322;28;19923;-85
2022/11/04 06:18:15;;;;;;;;;;;7.10;99.90;;;;;;5102367;28;20379;-86
2022/11/04 06:20:41;;;;;;;;;;;7.10;99.90;;;;;;5100608;28;20587;-85
2022/11/04 06:23:06;;;;;;;;;;;7.10;99.90;;;;;;5103343;28;19916;-85
2022/11/04 06:25:32;;;;;;;;;;;7.10;99.90;;;;;;5088231;28;19924;-86
2022/11/04 06:27:57;;;;;;;;;;;7.10;99.90;;;;;;5078257;28;20375;-86
2022/11/04 06:30:23;;;;;;;;;;;7.10;99.90;;;;;;5108608;28;19922;-86
2022/11/04 06:32:48;;;;;;;;;;;7.10;99.90;;;;;;5086715;28;19955;-86
2022/11/04 06:35:14;;;;;;;;;;;7.10;99.90;;;;;;5099948;28;20365;-86
2022/11/04 06:37:39;;;;;;;;;;;7.20;99.90;;;;;;5100039;28;20417;-86
2022/11/04 06:40:05;;;;;;;;;;;7.10;99.90;;;;;;5085283;28;19916;-86
2022/11/04 06:42:30;;;;;;;;;;;7.20;99.90;;;;;;5080978;28;19916;-86
2022/11/04 06:44:56;;;;;;;;;;;7.10;99.90;;;;;;5101977;28;20298;-86
2022/11/04 06:47:22;;;;;;;;;;;7.10;99.90;;;;;;5105788;28;19920;-86
2022/11/04 06:49:47;;;;;;;;;;;7.20;99.90;;;;;;5095616;28;20046;-85
2022/11/04 06:52:12;;;;;;;;;;;7.10;99.90;;;;;;5100486;28;19930;-86
2022/11/04 06:54:38;;;;;;;;;;;7.10;99.90;;;;;;5088362;28;19931;-86
2022/11/04 06:57:03;;;;;;;;;;;7.20;99.90;;;;;;5100318;28;20341;-85
2022/11/04 06:59:29;;;;;;;;;;;7.20;99.90;;;;;;5098658;28;20310;-85
2022/11/04 07:01:54;;;;;;;;;;;7.10;99.90;;;;;;5073714;28;19955;-85
2022/11/04 07:04:20;;;;;;;;;;;7.10;99.90;;;;;;5076779;28;20014;-87
2022/11/04 07:06:45;;;;;;;;;;;7.10;99.90;;;;;;5071798;28;19977;-85
2022/11/04 07:09:12;;;;;;;;;;;7.10;99.90;;;;;;5099980;28;19916;-87
2022/11/04 07:11:39;;;;;;;;;;;7.10;99.90;;;;;;5088921;28;20682;-86
2022/11/04 07:14:04;;;;;;;;;;;7.10;99.90;;;;;;5090644;28;19916;-85
2022/11/04 07:16:30;;;;;;;;;;;7.10;99.90;;;;;;5082438;28;19927;-87
2022/11/04 07:18:55;;;;;;;;;;;7.20;99.90;;;;;;5084600;28;20410;-86
2022/11/04 07:21:21;;;;;;;;;;;7.20;99.90;;;;;;5094825;28;20375;-87
2022/11/04 07:23:46;;;;;;;;;;;7.20;99.90;;;;;;5103156;28;19931;-86
2022/11/04 07:26:12;;;;;;;;;;;7.20;99.90;;;;;;5099186;28;19924;-87
2022/11/04 07:28:38;;;;;;;;;;;7.30;99.90;;;;;;5096225;28;20388;-87
2022/11/04 07:31:04;;;;;;;;;;;7.40;99.90;;;;;;5103678;28;19939;-87
2022/11/04 07:33:31;;;;;;;;;;;7.50;99.90;;;;;;5097050;28;19919;-85
2022/11/04 07:35:57;;;;;;;;;;;7.50;99.90;;;;;;5090977;28;19924;-86
2022/11/04 07:38:22;;;;;;;;;;;7.50;99.90;;;;;;5096601;28;19912;-86
2022/11/04 07:40:48;;;;;;;;;;;7.60;99.90;;;;;;5098346;28;19923;-86
2022/11/04 07:43:14;;;;;;;;;;;7.50;99.90;;;;;;5074596;28;19916;-87
2022/11/04 07:45:39;;;;;;;;;;;7.50;99.90;;;;;;5088363;28;19935;-82
2022/11/04 07:48:05;;;;;;;;;;;7.50;99.90;;;;;;5087235;28;20377;-91
2022/11/04 07:50:31;;;;;;;;;;;7.50;99.90;;;;;;5065762;28;19920;-81
2022/11/04 07:52:57;;;;;;;;;;;7.60;99.90;;;;;;5103416;28;19951;-83
2022/11/04 07:55:23;;;;;;;;;;;7.60;99.90;;;;;;5095709;28;19958;-82
2022/11/04 07:57:48;;;;;;;;;;;7.70;99.90;;;;;;5087642;28;19986;-82
2022/11/04 08:00:15;;;;;;;;;;;7.80;99.90;;;;;;5101867;28;20341;-82
2022/11/04 08:02:45;;;;;;;;;;;7.80;99.90;;;;;;5093960;28;19973;-81
2022/11/04 08:05:13;;;;;;;;;;;7.90;99.90;;;;;;5087988;28;19920;-81
2022/11/04 08:07:39;;;;;;;;;;;8.00;99.90;;;;;;5083598;28;20346;-81
2022/11/04 08:10:05;;;;;;;;;;;8.10;99.90;;;;;;5099072;28;20007;-81
2022/11/04 08:12:31;;;;;;;;;;;8.00;99.90;;;;;;5096695;28;19999;-81
2022/11/04 08:14:57;;;;;;;;;;;8.00;99.90;;;;;;5099713;28;20435;-81
2022/11/04 08:17:23;;;;;;;;;;;8.00;99.90;;;;;;5099856;28;19920;-81
2022/11/04 08:19:48;;;;;;;;;;;8.00;99.90;;;;;;5092031;28;19973;-81
2022/11/04 08:22:14;;;;;;;;;;;8.10;99.90;;;;;;5092353;28;20302;-81
2022/11/04 08:24:40;;;;;;;;;;;8.10;99.90;;;;;;5066656;28;19928;-82
2022/11/04 08:27:06;;;;;;;;;;;8.20;99.90;;;;;;5091623;28;19920;-82
2022/11/04 08:29:32;;;;;;;;;;;8.20;99.90;;;;;;5089692;28;19920;-81
2022/11/04 08:31:58;;;;;;;;;;;8.20;99.90;;;;;;5085237;28;19939;-81
2022/11/04 08:34:23;;;;;;;;;;;8.40;99.90;;;;;;5093150;28;19923;-82
2022/11/04 08:36:51;;;;;;;;;;;8.30;99.90;;;;;;5096842;28;19916;-82
2022/11/04 08:39:18;;;;;;;;;;;8.30;99.90;;;;;;5095703;28;19916;-81
2022/11/04 08:41:44;;;;;;;;;;;8.40;99.90;;;;;;5099228;28;19916;-82
2022/11/04 08:44:10;;;;;;;;;;;8.40;99.90;;;;;;5095655;28;20007;-82
2022/11/04 08:46:37;;;;;;;;;;;8.40;99.90;;;;;;5095334;28;19923;-82
2022/11/04 08:49:03;;;;;;;;;;;8.40;99.90;;;;;;5093453;28;19924;-82
2022/11/04 08:51:29;;;;;;;;;;;8.40;99.90;;;;;;5093026;28;19912;-81
2022/11/04 08:53:55;;;;;;;;;;;8.50;99.90;;;;;;5100095;28;19927;-81
2022/11/04 08:56:22;;;;;;;;;;;8.50;99.90;;;;;;5088247;28;19916;-81
2022/11/04 08:58:47;;;;;;;;;;;8.50;99.90;;;;;;5090178;28;19916;-80
2022/11/04 09:01:13;;;;;;;;;;;8.50;99.90;;;;;;5092321;28;20414;-82
2022/11/04 09:03:39;;;;;;;;;;;8.50;99.90;;;;;;5075013;28;19955;-81
2022/11/04 09:06:05;;;;;;;;;;;8.60;99.90;;;;;;5090234;28;20515;-82
2022/11/04 09:08:31;;;;;;;;;;;8.60;99.90;;;;;;5108490;28;20011;-81
2022/11/04 09:10:56;;;;;;;;;;;8.60;99.90;;;;;;5105919;28;20026;-82
2022/11/04 09:13:22;;;;;;;;;;;8.70;99.90;;;;;;5098387;28;19924;-82
2022/11/04 09:15:47;;;;;;;;;;;8.80;99.90;;;;;;5072418;28;19916;-81
2022/11/04 09:18:13;;;;;;;;;;;8.90;99.90;;;;;;5090126;28;19959;-81
2022/11/04 09:20:40;;;;;;;;;;;8.90;99.90;;;;;;5088184;28;20335;-81
2022/11/04 09:23:06;;;;;;;;;;;9.00;99.90;;;;;;5100738;28;19912;-80
2022/11/04 09:25:32;;;;;;;;;;;8.90;99.60;;;;;;5081632;28;20291;-81
2022/11/04 09:27:58;;;;;;;;;;;8.80;99.90;;;;;;5090030;28;20383;-83
2022/11/04 09:30:24;;;;;;;;;;;9.00;99.90;;;;;;5075228;28;19924;-83
2022/11/04 09:32:49;;;;;;;;;;;9.00;99.90;;;;;;5095937;28;19920;-82
2022/11/04 09:35:16;;;;;;;;;;;8.90;99.30;;;;;;5098364;28;20371;-84
2022/11/04 09:37:42;;;;;;;;;;;8.80;99.40;;;;;;5095987;28;19969;-83
2022/11/04 09:40:11;;;;;;;;;;;8.90;99.40;;;;;;5101289;28;19920;-82
2022/11/04 09:42:45;;;;;;;;;;;9.00;99.40;;;;;;5103792;28;19916;-84
2022/11/04 09:45:11;;;;;;;;;;;9.20;99.60;;;;;;5108488;28;19926;-84
2022/11/04 09:47:38;;;;;;;;;;;9.30;98.90;;;;;;5115357;28;19986;-85
2022/11/04 09:50:06;;;;;;;;;;;9.20;98.40;;;;;;5104170;28;19916;-87
2022/11/04 09:52:43;;;;;;;;;;;9.30;97.50;;;;;;5092941;28;19920;-77
2022/11/04 09:55:17;;;;;;;;;;;9.50;97.90;;;;;;5092702;28;20387;-76
2022/11/04 09:57:42;;;;;;;;;;;9.40;96.80;;;;;;5087833;28;19913;-76
2022/11/04 10:00:15;;;;;;;;;;;9.50;96.40;;;;;;5097154;28;19943;-76
2022/11/04 10:02:50;;;;;;;;;;;9.60;96.50;;;;;;5092149;28;19969;-76
2022/11/04 10:05:27;;;;;;;;;;;9.70;96.30;;;;;;5087481;28;19935;-76
2022/11/04 10:08:02;;;;;;;;;;;9.70;94.60;;;;;;5097082;28;19911;-76
2022/11/04 10:10:27;;;;;;;;;;;9.80;94.60;;;;;;5089982;28;19939;-78
2022/11/04 10:12:53;;;;;;;;;;;10.00;93.40;;;;;;5085843;28;20378;-76
2022/11/04 10:15:21;;;;;;;;;;;10.00;93.90;;;;;;5096976;28;20003;-81
2022/11/04 10:17:47;;;;;;;;;;;10.10;92.80;;;;;;5088651;28;20330;-78
2022/11/04 10:20:13;;;;;;;;;;;9.90;92.50;;;;;;5091729;28;19967;-81
2022/11/04 10:22:44;;;;;;;;;;;10.00;92.80;;;;;;5096985;28;19947;-82
2022/11/04 10:25:14;;;;;;;;;;;10.30;93.00;;;;;;5102370;27;19920;-77
2022/11/04 10:27:41;;;;;;;;;;;10.20;91.80;;;;;;5094990;28;20007;-75
2022/11/04 10:30:24;;;;;;;;;;;10.30;93.00;;;;;;5095201;28;19972;-81
2022/11/04 10:33:08;;;;;;;;;;;10.30;92.90;;;;;;5102936;28;19939;-81
2022/11/04 10:35:35;;;;;;;;;;;10.20;92.30;;;;;;5094074;28;19912;-81
2022/11/04 10:38:12;;;;;;;;;;;10.20;92.20;;;;;;5103247;28;19923;-80
2022/11/04 10:40:38;;;;;;;;;;;10.10;91.20;;;;;;5104029;28;20391;-80
2022/11/04 10:43:07;;;;;;;;;;;10.20;91.70;;;;;;5093492;28;19935;-81
2022/11/04 10:45:35;;;;;;;;;;;10.30;91.40;;;;;;5095744;28;19946;-84
2022/11/04 10:48:10;;;;;;;;;;;10.20;90.60;;;;;;5095943;28;20425;-80
2022/11/04 10:50:38;;;;;;;;;;;10.60;90.90;;;;;;5087707;28;19916;-80
2022/11/04 10:53:10;;;;;;;;;;;10.50;90.20;;;;;;5096804;28;19959;-81
2022/11/04 10:55:39;;;;;;;;;;;10.80;90.50;;;;;;5090897;28;19916;-79
2022/11/04 10:58:11;;;;;;;;;;;10.80;90.00;;;;;;5090742;28;20008;-79
2022/11/04 11:00:38;;;;;;;;;;;10.80;88.10;;;;;;5084131;28;19920;-79
2022/11/04 11:03:24;;;;;;;;;;;10.70;87.60;;;;;;5105900;28;20295;-84
2022/11/04 11:05:53;;;;;;;;;;;10.70;88.50;;;;;;5084750;28;20003;-82
2022/11/04 11:08:30;;;;;;;;;;;10.80;89.80;;;;;;5088723;28;19916;-82
2022/11/04 11:10:56;;;;;;;;;;;10.70;91.00;;;;;;5091114;28;20014;-82
2022/11/04 11:13:26;;;;;;;;;;;11.00;89.70;;;;;;5078722;28;20490;-82
2022/11/04 11:16:05;;;;;;;;;;;11.20;88.40;;;;;;5101327;28;19923;-81
2022/11/04 11:18:31;;;;;;;;;;;11.30;86.90;;;;;;5082682;28;19973;-81
2022/11/04 11:21:20;;;;;;;;;;;11.40;88.40;;;;;;5099128;28;19920;-81
2022/11/04 11:23:50;;;;;;;;;;;11.30;87.40;;;;;;5099174;27;19922;-82
2022/11/04 11:26:17;;;;;;;;;;;11.30;85.00;;;;;;5099918;28;20328;-81
2022/11/04 11:28:55;;;;;;;;;;;11.00;85.10;;;;;;5097240;28;20127;-81
2022/11/04 11:31:25;;;;;;;;;;;11.00;85.80;;;;;;5100336;28;20007;-81
2022/11/04 11:33:51;;;;;;;;;;;10.70;86.30;;;;;;5095991;28;20289;-81
2022/11/04 11:36:17;;;;;;;;;;;10.80;86.30;;;;;;5095801;28;20472;-82
2022/11/04 11:38:54;;;;;;;;;;;10.70;87.90;;;;;;5104864;28;20034;-81
2022/11/04 11:41:22;;;;;;;;;;;10.80;86.10;;;;;;5096700;28;19935;-81
2022/11/04 11:43:52;;;;;;;;;;;10.80;81.80;;;;;;5096746;28;20371;-81
2022/11/04 11:46:25;;;;;;;;;;;10.80;82.10;;;;;;5104279;28;19919;-81
2022/11/04 11:48:59;;;;;;;;;;;11.00;83.20;;;;;;5100510;28;20015;-81
2022/11/04 11:51:38;;;;;;;;;;;11.10;82.10;;;;;;5095286;28;19916;-81
2022/11/04 11:54:25;;;;;;;;;;;11.00;81.20;;;;;;5098301;28;19958;-81
2022/11/04 11:56:55;;;;;;;;;;;11.00;82.10;;;;;;5094810;28;19935;-81
2022/11/04 11:59:25;;;;;;;;;;;11.10;83.00;;;;;;5099609;28;20671;-81
2022/11/04 12:01:56;;;;;;;;;;;11.10;80.80;;;;;;5103635;28;20444;-81
2022/11/04 12:04:21;;;;;;;;;;;11.30;83.40;;;;;;5099843;28;19951;-81
2022/11/04 12:06:53;;;;;;;;;;;11.00;80.00;;;;;;5099710;28;19983;-81
2022/11/04 12:09:30;;;;;;;;;;;11.00;80.90;;;;;;5100474;28;19916;-82
2022/11/04 12:12:11;;;;;;;;;;;10.90;81.00;;;;;;5091522;28;20010;-82
2022/11/04 12:14:36;;;;;;;;;;;10.80;81.40;;;;;;5099995;28;19920;-82
2022/11/04 12:17:21;;;;;;;;;;;10.70;83.10;;;;;;5098314;28;19930;-82
2022/11/04 12:20:07;;;;;;;;;;;10.70;81.70;;;;;;5092663;28;19923;-82
2022/11/04 12:22:32;;;;;;;;;;;10.70;80.40;;;;;;5050090;28;19916;-82
2022/11/04 12:25:03;;;;;;;;;;;10.80;80.80;;;;;;5098678;28;19931;-82
2022/11/04 12:27:46;;;;;;;;;;;10.70;80.60;;;;;;5102659;28;19923;-82
2022/11/04 12:30:13;;;;;;;;;;;10.70;82.10;;;;;;5118545;28;19912;-82
2022/11/04 12:32:50;;;;;;;;;;;10.80;82.70;;;;;;5110826;28;19923;-82
2022/11/04 12:35:18;;;;;;;;;;;10.80;82.40;;;;;;5095942;28;20036;-82
2022/11/04 12:37:47;;;;;;;;;;;10.80;82.10;;;;;;5096979;28;20295;-82
2022/11/04 12:40:30;;;;;;;;;;;11.00;81.40;;;;;;5098300;28;19915;-82
2022/11/04 12:42:55;;;;;;;;;;;11.30;81.20;;;;;;5091104;28;19920;-82
2022/11/04 12:45:21;;;;;;;;;;;11.60;81.60;;;;;;5106131;28;20254;-83
2022/11/04 12:47:46;;;;;;;;;;;11.70;80.20;;;;;;5101058;28;19923;-83
2022/11/04 12:50:30;;;;;;;;;;;11.90;80.30;;;;;;5098979;28;20340;-83
2022/11/04 12:53:05;;;;;;;;;;;11.70;78.60;;;;;;5097596;28;19922;-80
2022/11/04 12:55:34;;;;;;;;;;;11.70;76.80;;;;;;5091996;28;19951;-81
2022/11/04 12:58:19;;;;;;;;;;;11.60;76.30;;;;;;5095460;28;19915;-83
2022/11/04 13:00:47;;;;;;;;;;;11.70;76.40;;;;;;5100365;28;19982;-83
2022/11/04 13:03:31;;;;;;;;;;;11.60;76.30;;;;;;5095655;28;20635;-83
2022/11/04 13:06:03;;;;;;;;;;;11.90;76.50;;;;;;5093055;28;19916;-81
2022/11/04 13:08:48;;;;;;;;;;;11.90;75.30;;;;;;5102861;28;19919;-80
2022/11/04 13:11:21;;;;;;;;;;;12.20;77.90;;;;;;5096844;28;19946;-80
2022/11/04 13:13:57;;;;;;;;;;;12.50;74.10;;;;;;5094238;28;20303;-80
2022/11/04 13:16:22;;;;;;;;;;;12.40;72.80;;;;;;5100374;28;19918;-80
2022/11/04 13:18:48;;;;;;;;;;;12.30;71.70;;;;;;5092658;28;20003;-80
2022/11/04 13:21:34;;;;;;;;;;;12.40;75.40;;;;;;5100921;28;20025;-81
2022/11/04 13:24:29;;;;;;;;;;;12.60;71.50;;;;;;5117865;27;19997;-80
2022/11/04 13:26:56;;;;;;;;;;;12.30;72.30;;;;;;5091249;28;19912;-80
2022/11/04 13:29:24;;;;;;;;;;;13.00;71.40;;;;;;5101539;28;19942;-80
2022/11/04 13:32:29;;;;;;;;;;;13.20;71.80;;;;;;5098471;28;19958;-80
2022/11/04 13:35:07;;;;;;;;;;;13.60;72.50;;;;;;5038432;28;20170;-80
2022/11/04 13:37:35;;;;;;;;;;;12.90;70.10;;;;;;5058937;28;19922;-81
2022/11/04 13:40:05;;;;;;;;;;;12.80;71.60;;;;;;5080805;28;19912;-80
2022/11/04 13:42:36;;;;;;;;;;;12.90;68.60;;;;;;5092341;28;19924;-82
2022/11/04 13:45:10;;;;;;;;;;;13.00;67.50;;;;;;5103969;28;19923;-83
2022/11/04 13:47:36;;;;;;;;;;;13.30;69.00;;;;;;5091910;28;19954;-81
2022/11/04 13:50:02;;;;;;;;;;;13.30;65.50;;;;;;5091414;28;19916;-81
2022/11/04 13:52:32;;;;;;;;;;;13.80;65.90;;;;;;5101625;28;19923;-81
2022/11/04 13:55:03;;;;;;;;;;;13.20;69.90;;;;;;5092906;28;19927;-81
2022/11/04 13:57:48;;;;;;;;;;;13.20;67.90;;;;;;5098622;28;20337;-81
2022/11/04 14:00:14;;;;;;;;;;;12.90;70.60;;;;;;5102932;28;20485;-81
2022/11/04 14:02:39;;;;;;;;;;;12.40;70.50;;;;;;5101288;28;19920;-81
2022/11/04 14:05:23;;;;;;;;;;;12.20;72.00;;;;;;5101689;28;19941;-81
2022/11/04 14:07:59;;;;;;;;;;;12.20;73.10;;;;;;5106741;28;19923;-81
2022/11/04 14:10:44;;;;;;;;;;;12.10;72.80;;;;;;5098698;28;20551;-81
2022/11/04 14:13:36;;;;;;;;;;;12.00;71.20;;;;;;5096298;28;19958;-81
2022/11/04 14:16:08;;;;;;;;;;;12.40;72.70;;;;;;5102314;28;19917;-81
2022/11/04 14:18:34;;;;;;;;;;;12.70;70.50;;;;;;5095303;28;20549;-82
2022/11/04 14:21:02;;;;;;;;;;;12.50;68.80;;;;;;5100167;28;19916;-82
2022/11/04 14:23:28;;;;;;;;;;;12.30;69.10;;;;;;5085824;28;19928;-82
2022/11/04 14:26:03;;;;;;;;;;;12.60;70.70;;;;;;5097977;28;19970;-82
2022/11/04 14:28:29;;;;;;;;;;;12.80;69.40;;;;;;5098776;28;19924;-82
2022/11/04 14:31:05;;;;;;;;;;;12.80;69.00;;;;;;5107888;28;19919;-82
2022/11/04 14:33:32;;;;;;;;;;;12.90;69.00;;;;;;5082385;28;19923;-82
2022/11/04 14:36:23;;;;;;;;;;;12.80;70.90;;;;;;5107164;28;19923;-82
2022/11/04 14:39:08;;;;;;;;;;;12.60;71.80;;;;;;5102670;28;19963;-82
2022/11/04 14:41:39;;;;;;;;;;;12.40;70.00;;;;;;5094180;28;20006;-82
2022/11/04 14:44:08;;;;;;;;;;;12.20;71.80;;;;;;5110447;27;19923;-82
2022/11/04 14:46:39;;;;;;;;;;;12.10;72.00;;;;;;5102697;28;19926;-82
2022/11/04 14:49:04;;;;;;;;;;;11.90;72.30;;;;;;5090964;28;19943;-82
2022/11/04 14:51:32;;;;;;;;;;;11.90;73.40;;;;;;5101874;28;20391;-82
2022/11/04 14:54:05;;;;;;;;;;;11.70;73.10;;;;;;5083908;28;19930;-82
2022/11/04 14:56:30;;;;;;;;;;;11.60;74.20;;;;;;5103618;28;19915;-81
2022/11/04 14:59:00;;;;;;;;;;;11.20;75.30;;;;;;5087841;28;19916;-82
2022/11/04 15:01:28;;;;;;;;;;;11.20;77.60;;;;;;5094911;28;20470;-82
2022/11/04 15:03:55;;;;;;;;;;;10.90;77.10;;;;;;5097514;28;19916;-82